Time;durP1;ratioP1;P1;durP2;ratioP2;P2;SDS_P1;SDS_P2;PMS_P1;PMS_P2;Temp;Humidity;BMP_temperature;BMP_pressure;BME280_temperature;BME280_humidity;BME280_pressure;Samples;Min_cycle;Max_cycle;Signal;HPM_P1;HPM_P2
2022/09/26 00:01:58;;;;;;;8.00;1.98;;;11.00;99.90;;;;;;5112592;28;20104;-85
2022/09/26 00:04:27;;;;;;;5.35;1.83;;;11.30;99.90;;;;;;5095037;28;20139;-84
2022/09/26 00:06:55;;;;;;;9.05;1.90;;;11.00;99.90;;;;;;5112728;28;20368;-84
2022/09/26 00:09:22;;;;;;;5.60;1.90;;;11.10;99.90;;;;;;5111916;28;20478;-78
2022/09/26 00:11:48;;;;;;;6.60;2.10;;;10.90;99.90;;;;;;5112727;28;20059;-94
2022/09/26 00:14:20;;;;;;;5.57;1.90;;;11.00;99.90;;;;;;5113116;28;20082;-79
2022/09/26 00:16:46;;;;;;;7.22;2.00;;;10.90;99.90;;;;;;5112154;28;20397;-89
2022/09/26 00:19:12;;;;;;;4.50;1.67;;;10.90;99.90;;;;;;5111996;28;20036;-81
2022/09/26 00:21:38;;;;;;;4.82;1.70;;;11.00;99.90;;;;;;5111850;28;20502;-79
2022/09/26 00:24:04;;;;;;;6.60;1.70;;;11.00;99.90;;;;;;5093839;28;20051;-81
2022/09/26 00:26:31;;;;;;;5.80;1.70;;;10.90;99.90;;;;;;5111645;28;20506;-79
2022/09/26 00:28:59;;;;;;;8.82;1.65;;;11.00;99.90;;;;;;5110891;28;20055;-82
2022/09/26 00:31:28;;;;;;;7.55;1.80;;;11.00;99.90;;;;;;5111404;28;20477;-87
2022/09/26 00:33:55;;;;;;;9.40;2.13;;;11.30;99.90;;;;;;5111986;28;20043;-82
2022/09/26 00:36:21;;;;;;;7.40;2.08;;;11.00;99.90;;;;;;5111832;28;20451;-81
2022/09/26 00:38:46;;;;;;;4.88;1.40;;;11.00;99.90;;;;;;5112318;28;20043;-84
2022/09/26 00:41:13;;;;;;;8.25;1.80;;;11.20;99.90;;;;;;5112332;28;20137;-82
2022/09/26 00:43:42;;;;;;;3.42;1.55;;;11.00;99.90;;;;;;5112452;28;20386;-86
2022/09/26 00:46:23;;;;;;;7.38;1.67;;;11.50;99.90;;;;;;5111871;28;20051;-80
2022/09/26 00:49:04;;;;;;;8.52;1.80;;;11.00;99.90;;;;;;5111638;28;20058;-89
2022/09/26 00:51:30;;;;;;;6.47;1.77;;;11.00;99.90;;;;;;5112080;28;20050;-82
2022/09/26 00:53:57;;;;;;;5.10;1.90;;;11.00;99.90;;;;;;5111402;28;20056;-79
2022/09/26 00:56:29;;;;;;;6.50;1.98;;;11.00;99.90;;;;;;5111580;28;20047;-81
2022/09/26 00:59:03;;;;;;;6.50;2.00;;;11.00;99.90;;;;;;5111030;28;20093;-84
2022/09/26 01:01:29;;;;;;;4.70;1.60;;;11.10;99.90;;;;;;5111187;28;20052;-81
2022/09/26 01:03:56;;;;;;;6.28;1.75;;;11.00;99.90;;;;;;5111599;28;20051;-80
2022/09/26 01:06:22;;;;;;;7.88;1.88;;;11.00;99.90;;;;;;5111440;28;20047;-92
2022/09/26 01:08:56;;;;;;;5.80;1.63;;;11.10;99.90;;;;;;5111216;28;20092;-87
2022/09/26 01:11:21;;;;;;;8.70;2.08;;;11.10;99.90;;;;;;5092088;28;20074;-85
2022/09/26 01:13:49;;;;;;;9.85;1.92;;;11.10;99.90;;;;;;5110620;28;20406;-82
2022/09/26 01:16:15;;;;;;;6.40;1.80;;;11.10;99.90;;;;;;5110941;28;20055;-80
2022/09/26 01:18:42;;;;;;;5.47;1.58;;;11.10;99.90;;;;;;5110266;28;20027;-88
2022/09/26 01:21:42;;;;;;;6.35;1.73;;;11.10;99.90;;;;;;5110999;28;20050;-78
2022/09/26 01:24:46;;;;;;;6.30;1.50;;;11.10;99.90;;;;;;5110542;28;20146;-81
2022/09/26 01:27:34;;;;;;;8.55;1.80;;;11.10;99.90;;;;;;5111019;28;20135;-83
2022/09/26 01:30:12;;;;;;;7.10;1.85;;;11.10;99.90;;;;;;5110085;28;20059;-78
2022/09/26 01:33:01;;;;;;;8.70;2.58;;;11.10;99.90;;;;;;5109439;28;20040;-81
2022/09/26 01:35:35;;;;;;;9.00;1.67;;;11.10;99.90;;;;;;5079118;28;20115;-81
2022/09/26 01:38:04;;;;;;;8.43;1.83;;;11.10;99.90;;;;;;5110536;28;20556;-81
2022/09/26 01:40:38;;;;;;;7.47;1.60;;;11.10;99.90;;;;;;5110584;28;20040;-84
2022/09/26 01:43:22;;;;;;;4.22;1.92;;;11.10;99.90;;;;;;5110907;28;20047;-83
2022/09/26 01:46:12;;;;;;;5.82;1.88;;;11.10;99.90;;;;;;5110978;28;20047;-83
2022/09/26 01:48:47;;;;;;;5.82;1.52;;;11.10;99.90;;;;;;5007261;28;20512;-82
2022/09/26 01:51:31;;;;;;;6.88;1.65;;;11.10;99.90;;;;;;4990880;28;20137;-80
2022/09/26 01:54:14;;;;;;;6.97;2.08;;;11.10;99.90;;;;;;5007428;28;20454;-82
2022/09/26 01:56:42;;;;;;;7.05;2.00;;;11.10;99.90;;;;;;4991087;28;20173;-80
2022/09/26 01:59:15;;;;;;;9.05;1.80;;;11.10;99.90;;;;;;5006898;28;20054;-81
2022/09/26 02:01:43;;;;;;;8.32;1.80;;;11.40;99.90;;;;;;5006383;28;20050;-80
2022/09/26 02:04:12;;;;;;;8.82;2.10;;;11.20;99.90;;;;;;5007276;28;20073;-81
2022/09/26 02:06:49;;;;;;;6.00;1.77;;;11.20;99.90;;;;;;5007208;28;20485;-80
2022/09/26 02:09:20;;;;;;;10.57;1.80;;;11.20;99.90;;;;;;5007418;28;20092;-80
2022/09/26 02:11:49;;;;;;;6.63;2.22;;;11.20;99.90;;;;;;5007778;28;20046;-81
2022/09/26 02:14:19;;;;;;;12.00;2.40;;;11.20;99.90;;;;;;5007655;28;20058;-80
2022/09/26 02:16:56;;;;;;;10.35;2.00;;;11.30;99.90;;;;;;5007215;28;20042;-81
2022/09/26 02:20:03;;;;;;;7.88;2.13;;;11.30;99.90;;;;;;5006898;28;20058;-80
2022/09/26 02:22:33;;;;;;;4.20;2.30;;;11.10;99.90;;;;;;5007444;28;20054;-78
2022/09/26 02:24:59;;;;;;;8.52;2.55;;;11.10;99.90;;;;;;5025886;28;20090;-83
2022/09/26 02:27:26;;;;;;;8.07;2.40;;;11.30;99.90;;;;;;5109801;28;20051;-82
2022/09/26 02:29:52;;;;;;;6.22;2.35;;;11.10;99.90;;;;;;5109096;28;20090;-85
2022/09/26 02:32:28;;;;;;;8.07;2.50;;;11.30;99.90;;;;;;5110173;28;20071;-82
2022/09/26 02:34:55;;;;;;;9.70;2.83;;;11.10;99.90;;;;;;5091463;28;20481;-80
2022/09/26 02:37:21;;;;;;;8.07;2.70;;;11.20;99.90;;;;;;5073513;28;20134;-78
2022/09/26 02:39:49;;;;;;;10.50;2.63;;;11.00;99.90;;;;;;5109550;28;20153;-80
2022/09/26 02:42:20;;;;;;;8.60;2.70;;;11.00;99.90;;;;;;5110855;28;20051;-79
2022/09/26 02:45:13;;;;;;;8.35;2.83;;;11.00;99.90;;;;;;5113396;28;20043;-81
2022/09/26 02:47:50;;;;;;;5.90;2.50;;;11.00;99.90;;;;;;5113358;28;20051;-79
2022/09/26 02:50:34;;;;;;;7.93;2.38;;;11.00;99.90;;;;;;5094472;28;20051;-80
2022/09/26 02:53:31;;;;;;;5.18;2.47;;;11.00;99.90;;;;;;5095097;28;20390;-78
2022/09/26 02:56:16;;;;;;;6.72;2.70;;;11.00;99.90;;;;;;5113546;28;20059;-80
2022/09/26 02:59:06;;;;;;;6.85;2.55;;;11.00;99.90;;;;;;5107686;28;20461;-74
2022/09/26 03:01:57;;;;;;;9.55;2.63;;;11.00;99.90;;;;;;5093020;28;20073;-78
2022/09/26 03:04:45;;;;;;;9.73;2.65;;;10.90;99.90;;;;;;5092744;28;20513;-80
2022/09/26 03:07:15;;;;;;;10.50;2.88;;;11.00;99.90;;;;;;5092515;28;20048;-80
2022/09/26 03:09:42;;;;;;;8.10;3.10;;;11.00;99.90;;;;;;5109996;28;20040;-79
2022/09/26 03:12:09;;;;;;;8.52;3.33;;;11.00;99.90;;;;;;5112774;28;20108;-77
2022/09/26 03:14:38;;;;;;;11.73;3.25;;;11.30;99.90;;;;;;5094899;28;20463;-78
2022/09/26 03:17:04;;;;;;;7.57;3.13;;;11.00;99.90;;;;;;5112685;28;20035;-80
2022/09/26 03:19:51;;;;;;;6.68;3.08;;;10.90;99.90;;;;;;5094216;28;20047;-82
2022/09/26 03:22:17;;;;;;;7.30;3.08;;;11.00;99.90;;;;;;5112589;28;20139;-82
2022/09/26 03:24:44;;;;;;;7.70;3.78;;;11.20;99.90;;;;;;5094007;28;20126;-81
2022/09/26 03:27:13;;;;;;;8.00;3.55;;;10.90;99.90;;;;;;5112730;28;20155;-79
2022/09/26 03:29:39;;;;;;;7.88;3.78;;;11.00;99.90;;;;;;5111918;28;20079;-83
2022/09/26 03:32:05;;;;;;;10.63;3.08;;;10.90;99.90;;;;;;5112392;28;20054;-79
2022/09/26 03:34:31;;;;;;;9.55;3.75;;;11.40;99.90;;;;;;5112665;28;20053;-81
2022/09/26 03:36:56;;;;;;;10.93;3.60;;;11.20;99.90;;;;;;5112762;28;20047;-82
2022/09/26 03:39:22;;;;;;;6.32;3.63;;;10.90;99.90;;;;;;5112466;28;20055;-79
2022/09/26 03:41:48;;;;;;;10.77;3.90;;;11.00;99.90;;;;;;5094039;28;20138;-80
2022/09/26 03:44:14;;;;;;;9.70;4.03;;;11.00;99.90;;;;;;5093701;28;20047;-80
2022/09/26 03:46:41;;;;;;;7.07;3.70;;;11.00;99.90;;;;;;5093946;28;20448;-76
2022/09/26 03:49:07;;;;;;;8.38;3.83;;;10.90;99.90;;;;;;5094208;28;20058;-79
2022/09/26 03:51:33;;;;;;;10.02;4.07;;;11.00;99.90;;;;;;5111966;28;20036;-82
2022/09/26 03:53:59;;;;;;;10.95;4.20;;;10.90;99.90;;;;;;5093277;28;20444;-81
2022/09/26 03:56:25;;;;;;;11.20;4.13;;;10.90;99.90;;;;;;5112228;28;20075;-78
2022/09/26 03:58:51;;;;;;;8.55;4.10;;;10.90;99.90;;;;;;5111980;28;20664;-78
2022/09/26 04:01:19;;;;;;;9.45;4.30;;;11.00;99.90;;;;;;5093425;28;20052;-79
2022/09/26 04:03:46;;;;;;;9.05;4.20;;;10.90;99.90;;;;;;5112032;28;20483;-81
2022/09/26 04:06:14;;;;;;;9.55;4.43;;;10.90;99.90;;;;;;5112040;28;20510;-81
2022/09/26 04:08:41;;;;;;;12.88;4.47;;;11.10;99.90;;;;;;5111824;28;20048;-78
2022/09/26 04:11:10;;;;;;;11.35;4.45;;;11.00;99.90;;;;;;5093245;28;20131;-81
2022/09/26 04:13:36;;;;;;;8.90;4.53;;;11.00;99.90;;;;;;5111459;28;20391;-78
2022/09/26 04:16:04;;;;;;;8.82;4.30;;;10.90;99.90;;;;;;5093950;28;20052;-78
2022/09/26 04:18:31;;;;;;;6.80;4.35;;;10.90;99.90;;;;;;5111529;28;20478;-79
2022/09/26 04:21:02;;;;;;;7.15;4.32;;;10.90;99.90;;;;;;5112126;28;20058;-80
2022/09/26 04:23:29;;;;;;;7.82;4.15;;;10.90;99.90;;;;;;5111765;28;20078;-81
2022/09/26 04:25:54;;;;;;;8.20;3.72;;;10.90;99.90;;;;;;5111474;28;20451;-77
2022/09/26 04:28:21;;;;;;;10.38;4.50;;;11.00;99.90;;;;;;5111292;28;20055;-82
2022/09/26 04:30:48;;;;;;;10.10;4.22;;;10.90;99.90;;;;;;5111478;28;20097;-76
2022/09/26 04:33:14;;;;;;;7.25;3.50;;;10.90;99.90;;;;;;5093313;28;20069;-81
2022/09/26 04:35:40;;;;;;;8.43;3.80;;;10.90;99.90;;;;;;5111514;28;20052;-76
2022/09/26 04:38:06;;;;;;;8.52;3.97;;;10.90;99.90;;;;;;5111296;28;20039;-82
2022/09/26 04:40:32;;;;;;;10.18;4.05;;;10.90;99.90;;;;;;5110639;28;20489;-79
2022/09/26 04:42:57;;;;;;;13.18;4.43;;;10.90;99.90;;;;;;5092397;28;20047;-78
2022/09/26 04:45:23;;;;;;;10.05;4.47;;;10.90;99.90;;;;;;5111204;28;20052;-78
2022/09/26 04:47:49;;;;;;;6.93;4.45;;;10.90;99.90;;;;;;5111191;28;20040;-81
2022/09/26 04:50:15;;;;;;;8.30;4.20;;;10.80;99.90;;;;;;5111283;28;20059;-79
2022/09/26 04:52:40;;;;;;;10.48;4.38;;;10.80;99.90;;;;;;5092345;28;20541;-80
2022/09/26 04:55:07;;;;;;;10.65;4.97;;;10.80;99.90;;;;;;5110956;28;20075;-78
2022/09/26 04:57:32;;;;;;;12.90;4.60;;;10.80;99.90;;;;;;5110827;28;20051;-75
2022/09/26 04:59:58;;;;;;;14.07;5.10;;;11.30;99.90;;;;;;5092527;28;20141;-78
2022/09/26 05:02:23;;;;;;;8.98;5.50;;;10.90;99.90;;;;;;5110459;28;20047;-78
2022/09/26 05:04:50;;;;;;;11.48;5.15;;;10.80;99.90;;;;;;5110910;28;20051;-80
2022/09/26 05:07:17;;;;;;;7.07;4.45;;;10.80;99.90;;;;;;5109996;28;20036;-79
2022/09/26 05:09:43;;;;;;;9.70;4.32;;;10.80;99.90;;;;;;5110913;28;20055;-76
2022/09/26 05:12:09;;;;;;;9.73;5.25;;;10.80;99.90;;;;;;5110340;28;20035;-78
2022/09/26 05:14:35;;;;;;;7.15;4.25;;;10.80;99.90;;;;;;5110888;28;20047;-77
2022/09/26 05:17:01;;;;;;;9.35;4.50;;;10.80;99.90;;;;;;5110848;28;20047;-77
2022/09/26 05:19:27;;;;;;;9.52;5.10;;;10.80;99.90;;;;;;5110807;28;20488;-80
2022/09/26 05:21:53;;;;;;;12.93;5.80;;;10.70;99.90;;;;;;5110709;28;20039;-78
2022/09/26 05:27:05;;;;;;;8.05;4.75;;;10.70;99.90;;;;;;5110235;28;20036;-78
2022/09/26 05:29:31;;;;;;;12.07;4.55;;;10.70;99.90;;;;;;5109097;28;20059;-79
2022/09/26 05:31:57;;;;;;;13.57;5.30;;;10.70;99.90;;;;;;5110030;28;20039;-79
2022/09/26 05:34:24;;;;;;;10.15;4.88;;;10.70;99.90;;;;;;5110088;28;20505;-77
2022/09/26 05:36:51;;;;;;;12.65;5.43;;;10.70;99.90;;;;;;5110288;28;20086;-76
2022/09/26 05:42:04;;;;;;;9.87;5.70;;;10.70;99.90;;;;;;5110128;28;20142;-76
2022/09/26 05:44:30;;;;;;;10.10;4.97;;;10.70;99.90;;;;;;5109693;28;20329;-78
2022/09/26 05:46:56;;;;;;;12.18;4.82;;;10.60;99.90;;;;;;5110205;28;20406;-80
2022/09/26 05:49:22;;;;;;;11.18;5.50;;;10.60;99.90;;;;;;5109964;28;20043;-84
2022/09/26 05:51:48;;;;;;;11.02;5.10;;;10.80;99.90;;;;;;5109948;28;20036;-78
2022/09/26 05:54:14;;;;;;;12.43;5.43;;;10.60;99.90;;;;;;5110129;28;20123;-81
2022/09/26 05:56:39;;;;;;;11.20;5.18;;;10.60;99.90;;;;;;5110323;28;20412;-79
2022/09/26 05:59:05;;;;;;;7.68;4.93;;;10.60;99.90;;;;;;5091471;28;20048;-80
2022/09/26 06:01:32;;;;;;;9.75;5.13;;;10.60;99.90;;;;;;5109834;28;20035;-75
2022/09/26 06:03:58;;;;;;;9.50;4.90;;;10.60;99.90;;;;;;5109990;28;20419;-83
2022/09/26 06:06:24;;;;;;;9.02;4.97;;;10.60;99.90;;;;;;5110225;28;20096;-78
2022/09/26 06:08:49;;;;;;;8.15;4.30;;;10.60;99.90;;;;;;5110275;28;20040;-81
2022/09/26 06:11:19;;;;;;;12.95;4.95;;;10.50;99.90;;;;;;5109918;28;20448;-77
2022/09/26 06:13:45;;;;;;;10.55;5.13;;;10.60;99.90;;;;;;5109844;28;20424;-78
2022/09/26 06:16:19;;;;;;;11.98;4.90;;;10.50;99.90;;;;;;5109694;28;20089;-78
2022/09/26 06:18:46;;;;;;;10.55;4.85;;;10.50;99.90;;;;;;5112946;28;20512;-79
2022/09/26 06:21:13;;;;;;;9.18;4.88;;;10.50;99.90;;;;;;5095878;28;20047;-81
2022/09/26 06:23:39;;;;;;;13.10;5.07;;;10.50;99.90;;;;;;5113821;28;20042;-75
2022/09/26 06:26:07;;;;;;;8.27;4.97;;;10.50;99.90;;;;;;5114111;28;20047;-75
2022/09/26 06:28:33;;;;;;;12.77;5.47;;;10.50;99.90;;;;;;5102194;28;20135;-79
2022/09/26 06:30:59;;;;;;;11.02;5.25;;;10.50;99.90;;;;;;5112378;28;20058;-76
2022/09/26 06:33:25;;;;;;;11.50;4.88;;;10.50;99.90;;;;;;5113262;28;20055;-77
2022/09/26 06:36:05;;;;;;;10.50;5.15;;;10.50;99.90;;;;;;5113011;28;20047;-76
2022/09/26 06:38:30;;;;;;;11.15;4.70;;;10.50;99.90;;;;;;5113623;28;20043;-74
2022/09/26 06:40:56;;;;;;;6.95;4.80;;;10.50;99.90;;;;;;5113156;28;20100;-82
2022/09/26 06:43:22;;;;;;;13.48;5.50;;;10.40;99.90;;;;;;5113865;28;20074;-78
2022/09/26 06:45:48;;;;;;;14.32;5.40;;;10.40;99.90;;;;;;5111963;28;20055;-81
2022/09/26 06:48:17;;;;;;;11.60;4.88;;;10.40;99.90;;;;;;5113457;28;20043;-82
2022/09/26 06:50:43;;;;;;;8.20;4.93;;;10.40;99.90;;;;;;5112485;28;20073;-83
2022/09/26 06:53:09;;;;;;;17.70;5.60;;;10.40;99.90;;;;;;5113552;28;20039;-81
2022/09/26 06:55:35;;;;;;;11.05;5.40;;;10.40;99.90;;;;;;5112580;28;20112;-78
2022/09/26 06:58:00;;;;;;;8.65;5.00;;;10.40;99.90;;;;;;5112453;28;20055;-82
2022/09/26 07:00:34;;;;;;;9.18;4.55;;;10.40;99.90;;;;;;5114084;28;20443;-82
2022/09/26 07:03:00;;;;;;;12.07;4.75;;;10.60;99.90;;;;;;5112830;28;20048;-79
2022/09/26 07:05:26;;;;;;;10.75;5.32;;;10.40;99.90;;;;;;5112995;28;20071;-78
2022/09/26 07:07:52;;;;;;;8.05;4.82;;;10.40;99.90;;;;;;5113192;28;20398;-82
2022/09/26 07:10:18;;;;;;;11.13;4.75;;;10.60;99.90;;;;;;5111631;28;20059;-80
2022/09/26 07:12:46;;;;;;;12.23;4.70;;;10.40;99.90;;;;;;5113086;28;20055;-79
2022/09/26 07:15:17;;;;;;;7.20;4.82;;;10.40;99.90;;;;;;5112757;28;20062;-80
2022/09/26 07:17:44;;;;;;;9.15;4.43;;;10.40;99.90;;;;;;5111265;28;20051;-81
2022/09/26 07:20:13;;;;;;;9.10;4.80;;;10.40;99.90;;;;;;5113344;28;20130;-78
2022/09/26 07:22:39;;;;;;;8.90;4.38;;;10.40;99.90;;;;;;5113133;28;20043;-82
2022/09/26 07:25:05;;;;;;;9.88;4.45;;;10.40;99.90;;;;;;5113050;28;20765;-77
2022/09/26 07:27:31;;;;;;;8.35;4.40;;;10.40;99.90;;;;;;5106181;28;20046;-82
2022/09/26 07:29:57;;;;;;;7.88;4.18;;;10.40;99.90;;;;;;5097167;28;20056;-80
2022/09/26 07:32:24;;;;;;;8.93;4.05;;;10.50;99.90;;;;;;5110077;28;20044;-83
2022/09/26 07:34:51;;;;;;;11.43;4.10;;;10.40;99.90;;;;;;5110926;28;20067;-82
2022/09/26 07:37:16;;;;;;;11.50;3.95;;;10.40;99.90;;;;;;5109189;28;20728;-82
2022/09/26 07:39:42;;;;;;;10.35;3.80;;;10.40;99.90;;;;;;5094688;28;20052;-82
2022/09/26 07:42:08;;;;;;;8.90;3.83;;;10.50;99.90;;;;;;5110254;28;20129;-81
2022/09/26 07:44:34;;;;;;;9.65;4.18;;;10.50;99.90;;;;;;5094707;28;20052;-81
2022/09/26 07:52:36;;;;;;;6.80;4.30;;;10.60;99.90;;;;;;5112413;28;20051;-77
2022/09/26 07:55:10;;;;;;;6.05;3.17;;;10.70;99.90;;;;;;5111929;28;20047;-75
2022/09/26 07:57:36;;;;;;;6.57;2.97;;;10.70;99.90;;;;;;5103222;28;20058;-81
2022/09/26 08:00:11;;;;;;;6.32;3.10;;;10.70;99.90;;;;;;5112354;28;20028;-83
2022/09/26 08:02:41;;;;;;;11.55;3.65;;;10.70;99.90;;;;;;5112847;28;20421;-78
2022/09/26 08:05:09;;;;;;;8.27;3.20;;;10.70;99.90;;;;;;5111730;28;20119;-82
2022/09/26 08:07:35;;;;;;;11.25;3.33;;;10.80;99.90;;;;;;5111853;28;20123;-82
2022/09/26 08:10:05;;;;;;;4.88;2.80;;;10.80;99.90;;;;;;5111671;28;20122;-81
2022/09/26 08:12:36;;;;;;;11.43;3.40;;;10.80;99.90;;;;;;5112322;28;20035;-80
2022/09/26 08:15:05;;;;;;;8.38;3.35;;;10.90;99.90;;;;;;5094156;28;20480;-80
2022/09/26 08:17:31;;;;;;;7.50;2.90;;;10.90;99.90;;;;;;5110922;28;20513;-80
2022/09/26 08:19:58;;;;;;;7.30;2.58;;;11.00;99.90;;;;;;5093261;28;20088;-81
2022/09/26 08:22:23;;;;;;;7.30;2.90;;;11.20;99.90;;;;;;5111846;28;20054;-82
2022/09/26 08:24:49;;;;;;;7.13;2.60;;;11.00;99.90;;;;;;5112077;28;20039;-81
2022/09/26 08:27:16;;;;;;;6.35;2.60;;;11.00;99.90;;;;;;5109302;28;20071;-81
2022/09/26 08:29:47;;;;;;;11.23;2.97;;;11.00;99.90;;;;;;5109668;28;20412;-79
2022/09/26 08:32:12;;;;;;;8.35;3.05;;;11.00;99.90;;;;;;5111439;28;20051;-83
2022/09/26 08:34:39;;;;;;;7.07;3.15;;;11.00;99.90;;;;;;5111732;28;20045;-83
2022/09/26 08:37:05;;;;;;;5.50;2.65;;;11.00;99.90;;;;;;5109398;28;20059;-81
2022/09/26 08:39:31;;;;;;;8.35;2.80;;;11.30;99.90;;;;;;5110252;28;20598;-82
2022/09/26 08:42:22;;;;;;;7.32;2.88;;;11.00;99.90;;;;;;5111313;28;20054;-79
2022/09/26 08:48:25;;;;;;;11.82;2.83;;;11.10;99.90;;;;;;5027931;28;20883;-81
2022/09/26 08:51:00;;;;;;;12.43;3.08;;;11.20;99.90;;;;;;5011063;28;20973;-79
2022/09/26 08:53:36;;;;;;;7.00;3.25;;;11.20;99.90;;;;;;5028175;28;20076;-82
2022/09/26 08:56:06;;;;;;;6.85;2.63;;;11.20;99.90;;;;;;5011688;28;20276;-82
2022/09/26 08:58:44;;;;;;;6.07;2.53;;;11.20;99.90;;;;;;5027755;28;20103;-82
2022/09/26 09:01:27;;;;;;;5.22;2.72;;;11.30;99.90;;;;;;5010542;28;20057;-81
2022/09/26 09:04:09;;;;;;;8.57;2.70;;;11.30;99.90;;;;;;5027503;28;20041;-83
2022/09/26 09:06:35;;;;;;;6.32;3.20;;;11.40;99.90;;;;;;5010340;28;20133;-76
2022/09/26 09:09:01;;;;;;;6.65;2.70;;;11.50;99.90;;;;;;4990917;28;20645;-78
2022/09/26 09:11:49;;;;;;;7.88;2.88;;;11.40;99.90;;;;;;5002907;28;20068;-83
2022/09/26 09:14:29;;;;;;;10.90;3.33;;;11.50;99.90;;;;;;5023705;28;20093;-77
2022/09/26 09:17:32;;;;;;;6.85;2.70;;;11.50;99.90;;;;;;5023562;28;20061;-79
2022/09/26 09:20:32;;;;;;;7.25;2.88;;;11.50;99.90;;;;;;5028133;28;20049;-74
2022/09/26 09:23:25;;;;;;;7.68;2.60;;;11.50;99.90;;;;;;5027250;28;20447;-80
2022/09/26 09:25:50;;;;;;;8.00;2.47;;;11.60;99.90;;;;;;5096561;28;20046;-75
2022/09/26 09:28:54;;;;;;;9.05;3.30;;;11.60;99.90;;;;;;5110673;28;20059;-79
2022/09/26 09:31:21;;;;;;;6.15;2.80;;;11.60;99.90;;;;;;5109051;28;20132;-81
2022/09/26 09:33:57;;;;;;;10.93;2.75;;;11.60;99.90;;;;;;5109643;28;20053;-78
2022/09/26 09:36:36;;;;;;;6.13;2.55;;;11.70;99.90;;;;;;5109814;28;20398;-78
2022/09/26 09:39:05;;;;;;;6.95;2.55;;;11.70;99.90;;;;;;5108399;28;20555;-79
2022/09/26 09:41:39;;;;;;;6.30;2.72;;;11.70;99.90;;;;;;5091128;28;20440;-80
2022/09/26 09:44:19;;;;;;;5.88;2.90;;;11.70;99.90;;;;;;5108994;28;20774;-79
2022/09/26 09:46:49;;;;;;;7.05;3.22;;;12.10;99.90;;;;;;5095779;27;20672;-79
2022/09/26 09:49:23;;;;;;;8.48;2.95;;;12.10;99.90;;;;;;5081355;28;20036;-80
2022/09/26 09:51:55;;;;;;;8.90;3.42;;;11.80;99.90;;;;;;5109078;28;20126;-79
2022/09/26 09:54:42;;;;;;;9.73;3.33;;;11.70;99.90;;;;;;5108404;28;20787;-78
2022/09/26 09:57:48;;;;;;;12.52;3.47;;;11.60;99.90;;;;;;5109840;28;20584;-78
2022/09/26 10:00:24;;;;;;;8.85;3.92;;;11.60;99.90;;;;;;5090141;28;20583;-78
2022/09/26 10:03:25;;;;;;;10.23;3.90;;;12.00;99.90;;;;;;5108559;28;20036;-79
2022/09/26 10:06:00;;;;;;;9.85;3.95;;;11.50;99.90;;;;;;5089755;28;20044;-78
2022/09/26 10:08:35;;;;;;;10.85;3.47;;;11.80;99.90;;;;;;5070693;28;20055;-78
2022/09/26 10:11:26;;;;;;;9.15;4.47;;;11.50;99.90;;;;;;5096798;28;20087;-79
2022/09/26 10:13:54;;;;;;;11.52;4.60;;;11.50;99.90;;;;;;5100115;28;20039;-74
2022/09/26 10:16:20;;;;;;;10.55;4.30;;;11.60;99.90;;;;;;5109228;28;20039;-80
2022/09/26 10:18:55;;;;;;;9.63;4.65;;;11.50;99.90;;;;;;5109308;28;20105;-78
2022/09/26 10:21:32;;;;;;;10.10;4.07;;;11.50;99.90;;;;;;5109418;28;20043;-79
2022/09/26 10:24:00;;;;;;;8.27;4.43;;;11.50;99.90;;;;;;5109391;28;20050;-80
2022/09/26 10:26:33;;;;;;;10.48;4.22;;;11.50;99.90;;;;;;5105729;28;20043;-81
2022/09/26 10:29:06;;;;;;;11.55;5.50;;;11.50;99.90;;;;;;5130107;28;20130;-79
2022/09/26 10:31:39;;;;;;;9.15;4.07;;;11.80;99.90;;;;;;5109754;28;20063;-81
2022/09/26 10:34:20;;;;;;;7.90;3.90;;;11.50;99.90;;;;;;5130534;28;20386;-82
2022/09/26 10:36:46;;;;;;;6.45;3.65;;;11.50;99.90;;;;;;5111105;28;20052;-78
2022/09/26 10:42:03;;;;;;;9.70;4.30;;;11.50;99.90;;;;;;5109060;28;20054;-78
2022/09/26 10:44:38;;;;;;;8.23;4.43;;;11.70;99.90;;;;;;5109606;28;20167;-78
2022/09/26 10:47:09;;;;;;;7.47;4.50;;;11.50;99.90;;;;;;5108379;28;20039;-81
2022/09/26 10:49:38;;;;;;;9.45;4.40;;;11.50;99.90;;;;;;5109353;28;20887;-80
2022/09/26 10:52:33;;;;;;;11.30;4.40;;;11.50;99.90;;;;;;5090859;28;20063;-82
2022/09/26 10:55:05;;;;;;;11.65;4.25;;;11.50;99.90;;;;;;5103788;28;20517;-79
2022/09/26 10:57:49;;;;;;;9.15;4.80;;;11.50;99.90;;;;;;5108453;28;20047;-85
2022/09/26 11:00:20;;;;;;;9.38;4.35;;;11.40;99.90;;;;;;5117711;28;20039;-78
2022/09/26 11:02:51;;;;;;;8.38;4.43;;;11.50;99.90;;;;;;5090642;28;20056;-80
2022/09/26 11:08:09;;;;;;;8.15;4.45;;;12.10;99.90;;;;;;5111681;28;20115;-81
2022/09/26 11:10:40;;;;;;;7.78;4.30;;;11.50;99.90;;;;;;5112113;28;20137;-77
2022/09/26 11:13:16;;;;;;;9.45;4.15;;;11.40;99.90;;;;;;5092999;28;20533;-79
2022/09/26 11:16:07;;;;;;;10.55;4.38;;;11.50;99.90;;;;;;5093081;28;20094;-79
2022/09/26 11:18:57;;;;;;;7.43;4.07;;;11.50;99.90;;;;;;5094009;28;20044;-82
2022/09/26 11:21:33;;;;;;;12.18;4.28;;;11.50;99.90;;;;;;5113178;28;20044;-85
2022/09/26 11:24:14;;;;;;;9.10;4.50;;;11.50;99.90;;;;;;5112247;28;20039;-82
2022/09/26 11:27:18;;;;;;;7.30;3.60;;;11.50;99.90;;;;;;5112780;28;20047;-85
2022/09/26 11:30:10;;;;;;;5.85;3.40;;;11.60;99.90;;;;;;5109485;27;20055;-84
2022/09/26 11:32:42;;;;;;;10.82;3.95;;;11.60;99.90;;;;;;5109763;28;20100;-80
2022/09/26 11:35:28;;;;;;;8.18;3.50;;;11.60;99.90;;;;;;5112218;28;20474;-82
2022/09/26 11:38:15;;;;;;;8.95;4.22;;;11.90;99.90;;;;;;5110754;28;20054;-81
2022/09/26 11:41:04;;;;;;;9.23;4.50;;;11.60;99.90;;;;;;5113425;28;20091;-79
2022/09/26 11:43:52;;;;;;;7.78;3.45;;;11.60;99.90;;;;;;5113086;28;20473;-81
2022/09/26 11:46:23;;;;;;;7.32;3.65;;;11.80;99.90;;;;;;5110025;28;20502;-81
2022/09/26 11:49:26;;;;;;;7.15;4.15;;;11.70;99.90;;;;;;5112206;28;20047;-78
2022/09/26 11:52:13;;;;;;;7.13;3.88;;;11.70;99.90;;;;;;5112930;28;20075;-81
2022/09/26 11:54:42;;;;;;;8.00;3.70;;;11.80;99.90;;;;;;5111723;28;20039;-81
2022/09/26 11:57:39;;;;;;;6.05;3.67;;;11.80;99.90;;;;;;5111374;28;20058;-82
2022/09/26 12:00:23;;;;;;;9.10;4.20;;;11.70;99.90;;;;;;5111335;28;20046;-74
2022/09/26 12:03:12;;;;;;;6.18;4.10;;;11.80;99.90;;;;;;5111719;28;20060;-75
2022/09/26 12:05:47;;;;;;;6.20;4.18;;;11.80;99.90;;;;;;5112138;28;20054;-77
2022/09/26 12:08:16;;;;;;;10.00;4.07;;;11.80;99.90;;;;;;5110699;28;20067;-86
2022/09/26 12:11:05;;;;;;;6.53;4.07;;;11.70;99.90;;;;;;5112217;28;20055;-83
2022/09/26 12:13:37;;;;;;;7.22;3.88;;;11.80;99.90;;;;;;5111474;28;20096;-84
2022/09/26 12:16:20;;;;;;;5.80;4.07;;;12.20;99.90;;;;;;5111190;28;20173;-82
2022/09/26 12:19:17;;;;;;;7.45;3.83;;;11.80;99.90;;;;;;5111934;27;20054;-84
2022/09/26 12:24:52;;;;;;;6.10;3.97;;;11.80;99.90;;;;;;5111794;28;20058;-78
2022/09/26 12:27:28;;;;;;;6.13;3.90;;;11.80;99.90;;;;;;5111166;28;20055;-82
2022/09/26 12:30:01;;;;;;;6.90;4.00;;;11.80;99.90;;;;;;5110718;28;20043;-84
2022/09/26 12:32:41;;;;;;;5.85;4.22;;;12.00;99.90;;;;;;5110769;28;20089;-90
2022/09/26 12:35:43;;;;;;;8.07;3.67;;;11.90;99.90;;;;;;5111392;28;20044;-87
2022/09/26 12:38:21;;;;;;;6.40;3.97;;;11.80;99.90;;;;;;5110500;28;20496;-81
2022/09/26 12:41:04;;;;;;;5.40;3.72;;;11.90;99.90;;;;;;5111247;28;20596;-84
2022/09/26 12:43:59;;;;;;;8.48;4.03;;;11.90;99.90;;;;;;5110374;28;20043;-81
2022/09/26 12:46:33;;;;;;;9.23;4.20;;;11.90;99.90;;;;;;5027976;28;20178;-82
2022/09/26 12:49:20;;;;;;;6.28;4.22;;;12.00;99.90;;;;;;5047588;28;20044;-85
2022/09/26 12:51:51;;;;;;;6.38;4.25;;;12.00;99.90;;;;;;5030808;28;20388;-87
2022/09/26 12:54:22;;;;;;;8.13;4.00;;;12.10;99.90;;;;;;5047616;28;20377;-83
2022/09/26 12:57:16;;;;;;;6.28;3.97;;;12.20;99.90;;;;;;5047075;28;20049;-82
2022/09/26 13:00:29;;;;;;;5.60;4.03;;;12.20;99.90;;;;;;5046960;28;20076;-85
2022/09/26 13:03:20;;;;;;;7.40;4.13;;;12.30;99.90;;;;;;4959646;28;20062;-84
2022/09/26 13:06:12;;;;;;;6.75;4.18;;;12.30;99.90;;;;;;4986041;28;20539;-83
2022/09/26 13:09:07;;;;;;;5.13;3.10;;;12.40;99.90;;;;;;4987857;28;20042;-82
2022/09/26 13:12:04;;;;;;;5.57;3.40;;;12.30;99.90;;;;;;4986955;28;20121;-83
2022/09/26 13:14:46;;;;;;;4.90;3.10;;;12.40;99.90;;;;;;4989624;28;20873;-81
2022/09/26 13:17:18;;;;;;;9.65;3.47;;;12.40;99.90;;;;;;4985654;28;20539;-87
2022/09/26 13:19:56;;;;;;;6.10;3.72;;;12.40;99.90;;;;;;4988420;28;20086;-85
2022/09/26 13:22:36;;;;;;;7.00;3.45;;;12.40;99.90;;;;;;4998281;28;20108;-81
2022/09/26 13:25:13;;;;;;;5.95;3.20;;;12.40;99.90;;;;;;5066988;28;20556;-84
2022/09/26 13:27:53;;;;;;;5.80;3.25;;;12.50;99.90;;;;;;5064662;28;20056;-84
2022/09/26 13:30:27;;;;;;;5.95;3.15;;;12.50;99.90;;;;;;5067500;28;20052;-83
2022/09/26 13:33:19;;;;;;;8.32;3.58;;;12.50;99.90;;;;;;5066274;28;20083;-89
2022/09/26 13:35:47;;;;;;;4.80;2.75;;;12.50;99.90;;;;;;5067051;28;20205;-85
2022/09/26 13:38:44;;;;;;;5.18;3.15;;;12.50;99.90;;;;;;5050435;28;20446;-83